sensor_id;sensor_type;location;lat;lon;timestamp;P1;durP1;ratioP1;P2;durP2;ratioP2
8462;SDS011;4268;52.506;13.462;2023-07-16T00:00:09;6.35;;;5.95;;
8462;SDS011;4268;52.506;13.462;2023-07-16T00:02:36;5.70;;;5.40;;
8462;SDS011;4268;52.506;13.462;2023-07-16T00:05:02;5.50;;;5.20;;
8462;SDS011;4268;52.506;13.462;2023-07-16T00:07:28;5.85;;;5.47;;
8462;SDS011;4268;52.506;13.462;2023-07-16T00:09:54;6.00;;;5.60;;
8462;SDS011;4268;52.506;13.462;2023-07-16T00:12:19;5.87;;;5.57;;
8462;SDS011;4268;52.506;13.462;2023-07-16T00:14:44;7.50;;;7.00;;
8462;SDS011;4268;52.506;13.462;2023-07-16T00:17:10;6.40;;;6.00;;
8462;SDS011;4268;52.506;13.462;2023-07-16T00:19:36;5.00;;;4.70;;
8462;SDS011;4268;52.506;13.462;2023-07-16T00:22:01;6.43;;;6.00;;
8462;SDS011;4268;52.506;13.462;2023-07-16T00:24:27;4.93;;;4.63;;
8462;SDS011;4268;52.506;13.462;2023-07-16T00:26:53;5.47;;;5.07;;
8462;SDS011;4268;52.506;13.462;2023-07-16T00:29:18;5.47;;;5.07;;
8462;SDS011;4268;52.506;13.462;2023-07-16T00:31:44;4.93;;;4.63;;
8462;SDS011;4268;52.506;13.462;2023-07-16T00:34:09;4.67;;;4.37;;
8462;SDS011;4268;52.506;13.462;2023-07-16T00:36:35;4.97;;;4.57;;
8462;SDS011;4268;52.506;13.462;2023-07-16T00:39:00;5.03;;;4.73;;
8462;SDS011;4268;52.506;13.462;2023-07-16T00:41:26;5.20;;;4.90;;
8462;SDS011;4268;52.506;13.462;2023-07-16T00:43:51;5.78;;;5.38;;
8462;SDS011;4268;52.506;13.462;2023-07-16T00:46:19;5.03;;;4.63;;
8462;SDS011;4268;52.506;13.462;2023-07-16T00:48:44;5.70;;;5.30;;
8462;SDS011;4268;52.506;13.462;2023-07-16T00:51:10;5.60;;;5.30;;
8462;SDS011;4268;52.506;13.462;2023-07-16T00:53:36;5.73;;;5.27;;
8462;SDS011;4268;52.506;13.462;2023-07-16T00:56:01;6.17;;;5.77;;
8462;SDS011;4268;52.506;13.462;2023-07-16T00:58:27;6.70;;;6.30;;
8462;SDS011;4268;52.506;13.462;2023-07-16T01:00:52;6.77;;;6.20;;
8462;SDS011;4268;52.506;13.462;2023-07-16T01:03:18;6.70;;;6.30;;
8462;SDS011;4268;52.506;13.462;2023-07-16T01:08:53;5.18;;;4.88;;
8462;SDS011;4268;52.506;13.462;2023-07-16T01:11:37;5.17;;;4.77;;
8462;SDS011;4268;52.506;13.462;2023-07-16T01:14:05;5.40;;;5.10;;
8462;SDS011;4268;52.506;13.462;2023-07-16T01:16:32;8.97;;;5.60;;
8462;SDS011;4268;52.506;13.462;2023-07-16T01:18:58;6.07;;;5.57;;
8462;SDS011;4268;52.506;13.462;2023-07-16T01:21:24;4.93;;;4.63;;
8462;SDS011;4268;52.506;13.462;2023-07-16T01:24:10;4.70;;;4.40;;
8462;SDS011;4268;52.506;13.462;2023-07-16T01:29:45;4.30;;;4.10;;
8462;SDS011;4268;52.506;13.462;2023-07-16T01:32:16;4.83;;;4.30;;
8462;SDS011;4268;52.506;13.462;2023-07-16T01:34:42;4.63;;;4.33;;
8462;SDS011;4268;52.506;13.462;2023-07-16T01:37:08;4.90;;;4.50;;
8462;SDS011;4268;52.506;13.462;2023-07-16T01:39:34;5.33;;;4.80;;
8462;SDS011;4268;52.506;13.462;2023-07-16T01:42:00;5.27;;;4.97;;
8462;SDS011;4268;52.506;13.462;2023-07-16T01:44:26;6.43;;;5.70;;
8462;SDS011;4268;52.506;13.462;2023-07-16T01:49:34;5.37;;;4.97;;
8462;SDS011;4268;52.506;13.462;2023-07-16T01:52:00;5.30;;;5.00;;
8462;SDS011;4268;52.506;13.462;2023-07-16T01:54:27;4.80;;;4.50;;
8462;SDS011;4268;52.506;13.462;2023-07-16T01:56:53;5.00;;;4.70;;
8462;SDS011;4268;52.506;13.462;2023-07-16T01:59:18;5.57;;;5.17;;
8462;SDS011;4268;52.506;13.462;2023-07-16T02:01:44;5.63;;;5.30;;
8462;SDS011;4268;52.506;13.462;2023-07-16T02:04:09;4.87;;;4.63;;
8462;SDS011;4268;52.506;13.462;2023-07-16T02:06:35;5.37;;;4.97;;
8462;SDS011;4268;52.506;13.462;2023-07-16T02:09:00;5.10;;;4.80;;
8462;SDS011;4268;52.506;13.462;2023-07-16T02:11:26;5.03;;;4.83;;
8462;SDS011;4268;52.506;13.462;2023-07-16T02:13:51;5.07;;;4.77;;
8462;SDS011;4268;52.506;13.462;2023-07-16T02:16:17;5.30;;;5.00;;
8462;SDS011;4268;52.506;13.462;2023-07-16T02:18:42;4.80;;;4.57;;
8462;SDS011;4268;52.506;13.462;2023-07-16T02:21:07;4.47;;;4.17;;
8462;SDS011;4268;52.506;13.462;2023-07-16T02:23:33;4.40;;;4.20;;
8462;SDS011;4268;52.506;13.462;2023-07-16T02:25:58;4.47;;;4.17;;
8462;SDS011;4268;52.506;13.462;2023-07-16T02:28:24;4.37;;;4.17;;
8462;SDS011;4268;52.506;13.462;2023-07-16T02:30:49;4.63;;;4.43;;
8462;SDS011;4268;52.506;13.462;2023-07-16T02:33:15;4.70;;;4.20;;
8462;SDS011;4268;52.506;13.462;2023-07-16T02:35:45;4.53;;;4.30;;
8462;SDS011;4268;52.506;13.462;2023-07-16T02:38:14;4.00;;;3.80;;
8462;SDS011;4268;52.506;13.462;2023-07-16T02:40:44;4.33;;;4.03;;
8462;SDS011;4268;52.506;13.462;2023-07-16T02:43:10;4.00;;;3.80;;
8462;SDS011;4268;52.506;13.462;2023-07-16T02:45:36;3.97;;;3.77;;
8462;SDS011;4268;52.506;13.462;2023-07-16T02:48:02;4.10;;;3.90;;
8462;SDS011;4268;52.506;13.462;2023-07-16T02:50:27;4.10;;;3.70;;
8462;SDS011;4268;52.506;13.462;2023-07-16T02:52:53;3.97;;;3.77;;
8462;SDS011;4268;52.506;13.462;2023-07-16T02:55:18;4.23;;;4.03;;
8462;SDS011;4268;52.506;13.462;2023-07-16T02:57:44;5.70;;;5.40;;
8462;SDS011;4268;52.506;13.462;2023-07-16T03:00:09;8.30;;;7.90;;
8462;SDS011;4268;52.506;13.462;2023-07-16T03:02:35;8.70;;;8.30;;
8462;SDS011;4268;52.506;13.462;2023-07-16T03:05:00;8.53;;;8.03;;
8462;SDS011;4268;52.506;13.462;2023-07-16T03:07:27;9.53;;;8.80;;
8462;SDS011;4268;52.506;13.462;2023-07-16T03:09:52;7.17;;;6.77;;
8462;SDS011;4268;52.506;13.462;2023-07-16T03:12:17;7.50;;;7.03;;
8462;SDS011;4268;52.506;13.462;2023-07-16T03:14:43;8.83;;;8.33;;
8462;SDS011;4268;52.506;13.462;2023-07-16T03:17:08;9.67;;;9.17;;
8462;SDS011;4268;52.506;13.462;2023-07-16T03:19:34;8.17;;;7.67;;
8462;SDS011;4268;52.506;13.462;2023-07-16T03:21:59;7.57;;;7.17;;
8462;SDS011;4268;52.506;13.462;2023-07-16T03:24:25;9.83;;;9.33;;
8462;SDS011;4268;52.506;13.462;2023-07-16T03:26:50;10.47;;;9.87;;
8462;SDS011;4268;52.506;13.462;2023-07-16T03:29:16;13.60;;;12.90;;
8462;SDS011;4268;52.506;13.462;2023-07-16T03:31:41;18.70;;;17.73;;
8462;SDS011;4268;52.506;13.462;2023-07-16T03:34:07;21.97;;;20.97;;
8462;SDS011;4268;52.506;13.462;2023-07-16T03:36:32;48.07;;;45.77;;
8462;SDS011;4268;52.506;13.462;2023-07-16T03:38:58;29.93;;;28.43;;
8462;SDS011;4268;52.506;13.462;2023-07-16T03:41:23;23.93;;;22.80;;
8462;SDS011;4268;52.506;13.462;2023-07-16T03:43:49;19.57;;;18.67;;
8462;SDS011;4268;52.506;13.462;2023-07-16T03:46:14;17.40;;;16.50;;
8462;SDS011;4268;52.506;13.462;2023-07-16T03:48:40;16.07;;;15.17;;
8462;SDS011;4268;52.506;13.462;2023-07-16T03:51:05;14.43;;;13.73;;
8462;SDS011;4268;52.506;13.462;2023-07-16T03:53:31;13.27;;;12.57;;
8462;SDS011;4268;52.506;13.462;2023-07-16T03:55:56;12.97;;;12.37;;
8462;SDS011;4268;52.506;13.462;2023-07-16T03:58:22;21.13;;;20.13;;
8462;SDS011;4268;52.506;13.462;2023-07-16T04:00:48;15.23;;;14.53;;
8462;SDS011;4268;52.506;13.462;2023-07-16T04:03:13;15.03;;;14.33;;
8462;SDS011;4268;52.506;13.462;2023-07-16T04:05:39;15.30;;;14.50;;
8462;SDS011;4268;52.506;13.462;2023-07-16T04:08:04;14.53;;;13.83;;
8462;SDS011;4268;52.506;13.462;2023-07-16T04:10:29;13.63;;;12.97;;
8462;SDS011;4268;52.506;13.462;2023-07-16T04:12:55;16.17;;;15.37;;
8462;SDS011;4268;52.506;13.462;2023-07-16T04:15:20;13.60;;;12.80;;
8462;SDS011;4268;52.506;13.462;2023-07-16T04:17:46;12.00;;;11.40;;
8462;SDS011;4268;52.506;13.462;2023-07-16T04:20:11;10.53;;;10.03;;
8462;SDS011;4268;52.506;13.462;2023-07-16T04:22:37;9.87;;;9.27;;
8462;SDS011;4268;52.506;13.462;2023-07-16T04:25:02;9.57;;;8.97;;
8462;SDS011;4268;52.506;13.462;2023-07-16T04:27:28;9.20;;;8.63;;
8462;SDS011;4268;52.506;13.462;2023-07-16T04:29:54;7.13;;;6.73;;
8462;SDS011;4268;52.506;13.462;2023-07-16T04:32:19;6.40;;;6.00;;
8462;SDS011;4268;52.506;13.462;2023-07-16T04:34:45;6.20;;;5.90;;
8462;SDS011;4268;52.506;13.462;2023-07-16T04:37:10;6.23;;;5.93;;
8462;SDS011;4268;52.506;13.462;2023-07-16T04:39:36;6.20;;;5.90;;
8462;SDS011;4268;52.506;13.462;2023-07-16T04:42:01;5.90;;;5.60;;
8462;SDS011;4268;52.506;13.462;2023-07-16T04:44:27;5.53;;;5.23;;
8462;SDS011;4268;52.506;13.462;2023-07-16T04:46:52;5.60;;;5.27;;
8462;SDS011;4268;52.506;13.462;2023-07-16T04:49:18;6.53;;;6.13;;
8462;SDS011;4268;52.506;13.462;2023-07-16T04:51:43;6.33;;;6.03;;
8462;SDS011;4268;52.506;13.462;2023-07-16T04:54:08;6.50;;;6.20;;
8462;SDS011;4268;52.506;13.462;2023-07-16T04:56:34;8.03;;;7.63;;
8462;SDS011;4268;52.506;13.462;2023-07-16T04:59:00;8.83;;;8.43;;
8462;SDS011;4268;52.506;13.462;2023-07-16T05:01:25;10.13;;;9.63;;
8462;SDS011;4268;52.506;13.462;2023-07-16T05:03:51;9.97;;;9.47;;
8462;SDS011;4268;52.506;13.462;2023-07-16T05:06:17;9.27;;;8.83;;
8462;SDS011;4268;52.506;13.462;2023-07-16T05:08:42;9.30;;;8.80;;
8462;SDS011;4268;52.506;13.462;2023-07-16T05:11:08;8.40;;;8.00;;
8462;SDS011;4268;52.506;13.462;2023-07-16T05:13:33;7.43;;;7.03;;
8462;SDS011;4268;52.506;13.462;2023-07-16T05:15:59;7.23;;;6.83;;
8462;SDS011;4268;52.506;13.462;2023-07-16T05:18:24;6.60;;;6.20;;
8462;SDS011;4268;52.506;13.462;2023-07-16T05:20:50;6.73;;;6.23;;
8462;SDS011;4268;52.506;13.462;2023-07-16T05:23:16;6.40;;;6.00;;
8462;SDS011;4268;52.506;13.462;2023-07-16T05:25:48;5.30;;;5.00;;
8462;SDS011;4268;52.506;13.462;2023-07-16T05:28:14;5.67;;;5.13;;
8462;SDS011;4268;52.506;13.462;2023-07-16T05:30:40;5.30;;;5.00;;
8462;SDS011;4268;52.506;13.462;2023-07-16T05:33:06;5.97;;;5.57;;
8462;SDS011;4268;52.506;13.462;2023-07-16T05:35:31;5.13;;;4.83;;
8462;SDS011;4268;52.506;13.462;2023-07-16T05:37:57;4.53;;;4.23;;
8462;SDS011;4268;52.506;13.462;2023-07-16T05:40:22;4.23;;;4.03;;
8462;SDS011;4268;52.506;13.462;2023-07-16T05:42:48;4.83;;;4.20;;
8462;SDS011;4268;52.506;13.462;2023-07-16T05:45:13;3.70;;;3.40;;
8462;SDS011;4268;52.506;13.462;2023-07-16T05:47:39;3.97;;;3.67;;
8462;SDS011;4268;52.506;13.462;2023-07-16T05:50:04;3.97;;;3.70;;
8462;SDS011;4268;52.506;13.462;2023-07-16T05:52:30;3.80;;;3.50;;
8462;SDS011;4268;52.506;13.462;2023-07-16T05:54:56;3.20;;;3.00;;
8462;SDS011;4268;52.506;13.462;2023-07-16T05:57:22;3.60;;;3.30;;
8462;SDS011;4268;52.506;13.462;2023-07-16T05:59:47;3.67;;;3.47;;
8462;SDS011;4268;52.506;13.462;2023-07-16T06:02:14;3.50;;;3.30;;
8462;SDS011;4268;52.506;13.462;2023-07-16T06:04:39;3.93;;;3.63;;
8462;SDS011;4268;52.506;13.462;2023-07-16T06:07:05;3.77;;;3.57;;
8462;SDS011;4268;52.506;13.462;2023-07-16T06:09:31;4.20;;;3.80;;
8462;SDS011;4268;52.506;13.462;2023-07-16T06:11:58;3.78;;;3.58;;
8462;SDS011;4268;52.506;13.462;2023-07-16T06:14:23;3.60;;;3.40;;
8462;SDS011;4268;52.506;13.462;2023-07-16T06:16:49;3.28;;;3.08;;
8462;SDS011;4268;52.506;13.462;2023-07-16T06:19:14;3.53;;;3.22;;
8462;SDS011;4268;52.506;13.462;2023-07-16T06:21:40;3.78;;;3.47;;
8462;SDS011;4268;52.506;13.462;2023-07-16T06:24:05;3.55;;;3.35;;
8462;SDS011;4268;52.506;13.462;2023-07-16T06:26:31;2.92;;;2.80;;
8462;SDS011;4268;52.506;13.462;2023-07-16T06:28:56;3.00;;;2.80;;
8462;SDS011;4268;52.506;13.462;2023-07-16T06:31:22;3.00;;;2.80;;
8462;SDS011;4268;52.506;13.462;2023-07-16T06:33:47;2.60;;;2.50;;
8462;SDS011;4268;52.506;13.462;2023-07-16T06:36:14;3.55;;;3.35;;
8462;SDS011;4268;52.506;13.462;2023-07-16T06:38:39;2.92;;;2.83;;
8462;SDS011;4268;52.506;13.462;2023-07-16T06:41:05;3.55;;;3.35;;
8462;SDS011;4268;52.506;13.462;2023-07-16T06:43:31;3.40;;;3.20;;
8462;SDS011;4268;52.506;13.462;2023-07-16T06:45:56;3.45;;;3.28;;
8462;SDS011;4268;52.506;13.462;2023-07-16T06:48:22;2.97;;;2.78;;
8462;SDS011;4268;52.506;13.462;2023-07-16T06:50:48;2.80;;;2.70;;
8462;SDS011;4268;52.506;13.462;2023-07-16T06:53:15;2.97;;;2.70;;
8462;SDS011;4268;52.506;13.462;2023-07-16T06:55:40;2.83;;;2.67;;
8462;SDS011;4268;52.506;13.462;2023-07-16T06:58:09;2.70;;;2.60;;
8462;SDS011;4268;52.506;13.462;2023-07-16T07:00:35;2.60;;;2.50;;
8462;SDS011;4268;52.506;13.462;2023-07-16T07:03:01;2.63;;;2.53;;
8462;SDS011;4268;52.506;13.462;2023-07-16T07:05:27;2.65;;;2.53;;
8462;SDS011;4268;52.506;13.462;2023-07-16T07:07:52;2.80;;;2.70;;
8462;SDS011;4268;52.506;13.462;2023-07-16T07:10:18;3.22;;;3.13;;
8462;SDS011;4268;52.506;13.462;2023-07-16T07:12:43;2.90;;;2.72;;
8462;SDS011;4268;52.506;13.462;2023-07-16T07:15:08;2.67;;;2.58;;
8462;SDS011;4268;52.506;13.462;2023-07-16T07:17:35;2.70;;;2.60;;
8462;SDS011;4268;52.506;13.462;2023-07-16T07:20:01;3.17;;;2.97;;
8462;SDS011;4268;52.506;13.462;2023-07-16T07:22:28;2.85;;;2.65;;
8462;SDS011;4268;52.506;13.462;2023-07-16T07:24:53;3.00;;;2.80;;
8462;SDS011;4268;52.506;13.462;2023-07-16T07:27:18;3.22;;;3.03;;
8462;SDS011;4268;52.506;13.462;2023-07-16T07:29:44;2.97;;;2.70;;
8462;SDS011;4268;52.506;13.462;2023-07-16T07:32:11;3.05;;;2.80;;
8462;SDS011;4268;52.506;13.462;2023-07-16T07:34:38;3.33;;;3.13;;
8462;SDS011;4268;52.506;13.462;2023-07-16T07:37:03;3.00;;;2.80;;
8462;SDS011;4268;52.506;13.462;2023-07-16T07:39:29;3.60;;;3.40;;
8462;SDS011;4268;52.506;13.462;2023-07-16T07:41:55;3.10;;;3.00;;
8462;SDS011;4268;52.506;13.462;2023-07-16T07:44:20;3.45;;;3.20;;
8462;SDS011;4268;52.506;13.462;2023-07-16T07:46:46;3.25;;;3.05;;
8462;SDS011;4268;52.506;13.462;2023-07-16T07:49:12;3.13;;;2.92;;
8462;SDS011;4268;52.506;13.462;2023-07-16T07:51:37;3.28;;;3.08;;
8462;SDS011;4268;52.506;13.462;2023-07-16T07:54:03;3.50;;;3.30;;
8462;SDS011;4268;52.506;13.462;2023-07-16T07:56:28;3.30;;;3.10;;
8462;SDS011;4268;52.506;13.462;2023-07-16T07:58:55;3.20;;;3.00;;
8462;SDS011;4268;52.506;13.462;2023-07-16T08:01:20;3.30;;;3.00;;
8462;SDS011;4268;52.506;13.462;2023-07-16T08:03:46;2.90;;;2.70;;
8462;SDS011;4268;52.506;13.462;2023-07-16T08:06:11;3.28;;;2.97;;
8462;SDS011;4268;52.506;13.462;2023-07-16T08:08:37;3.10;;;2.95;;
8462;SDS011;4268;52.506;13.462;2023-07-16T08:11:03;3.70;;;3.38;;
8462;SDS011;4268;52.506;13.462;2023-07-16T08:13:28;4.38;;;4.18;;
8462;SDS011;4268;52.506;13.462;2023-07-16T08:15:54;4.32;;;4.10;;
8462;SDS011;4268;52.506;13.462;2023-07-16T08:18:19;4.13;;;3.90;;
8462;SDS011;4268;52.506;13.462;2023-07-16T08:20:46;3.60;;;3.40;;
8462;SDS011;4268;52.506;13.462;2023-07-16T08:23:12;3.42;;;3.22;;
8462;SDS011;4268;52.506;13.462;2023-07-16T08:25:37;3.53;;;3.22;;
8462;SDS011;4268;52.506;13.462;2023-07-16T08:28:03;4.05;;;3.72;;
8462;SDS011;4268;52.506;13.462;2023-07-16T08:30:28;3.75;;;3.55;;
8462;SDS011;4268;52.506;13.462;2023-07-16T08:32:54;4.05;;;3.75;;
8462;SDS011;4268;52.506;13.462;2023-07-16T08:35:19;3.28;;;3.08;;
8462;SDS011;4268;52.506;13.462;2023-07-16T08:37:45;2.70;;;2.60;;
8462;SDS011;4268;52.506;13.462;2023-07-16T08:40:14;2.67;;;2.53;;
8462;SDS011;4268;52.506;13.462;2023-07-16T08:42:39;3.83;;;2.90;;
8462;SDS011;4268;52.506;13.462;2023-07-16T08:45:09;2.58;;;2.47;;
8462;SDS011;4268;52.506;13.462;2023-07-16T08:47:35;3.17;;;2.50;;
8462;SDS011;4268;52.506;13.462;2023-07-16T08:50:01;2.75;;;2.55;;
8462;SDS011;4268;52.506;13.462;2023-07-16T08:52:28;2.58;;;2.38;;
8462;SDS011;4268;52.506;13.462;2023-07-16T08:54:54;2.83;;;2.53;;
8462;SDS011;4268;52.506;13.462;2023-07-16T08:57:20;2.40;;;2.30;;
8462;SDS011;4268;52.506;13.462;2023-07-16T08:59:49;2.72;;;2.53;;
8462;SDS011;4268;52.506;13.462;2023-07-16T09:02:19;2.67;;;2.47;;
8462;SDS011;4268;52.506;13.462;2023-07-16T09:04:46;2.97;;;2.78;;
8462;SDS011;4268;52.506;13.462;2023-07-16T09:07:12;2.53;;;2.33;;
8462;SDS011;4268;52.506;13.462;2023-07-16T09:09:38;5.70;;;2.58;;
8462;SDS011;4268;52.506;13.462;2023-07-16T09:12:03;2.75;;;2.55;;
8462;SDS011;4268;52.506;13.462;2023-07-16T09:14:29;2.63;;;2.50;;
8462;SDS011;4268;52.506;13.462;2023-07-16T09:16:55;2.67;;;2.40;;
8462;SDS011;4268;52.506;13.462;2023-07-16T09:19:21;2.90;;;2.70;;
8462;SDS011;4268;52.506;13.462;2023-07-16T09:21:47;2.90;;;2.70;;
8462;SDS011;4268;52.506;13.462;2023-07-16T09:24:13;2.70;;;2.50;;
8462;SDS011;4268;52.506;13.462;2023-07-16T09:26:47;2.90;;;2.22;;
8462;SDS011;4268;52.506;13.462;2023-07-16T09:29:22;2.55;;;2.45;;
8462;SDS011;4268;52.506;13.462;2023-07-16T09:34:22;2.67;;;2.50;;
8462;SDS011;4268;52.506;13.462;2023-07-16T09:36:48;2.80;;;2.60;;
8462;SDS011;4268;52.506;13.462;2023-07-16T09:39:17;3.17;;;2.97;;
8462;SDS011;4268;52.506;13.462;2023-07-16T09:41:47;2.65;;;2.50;;
8462;SDS011;4268;52.506;13.462;2023-07-16T09:44:14;3.17;;;2.80;;
8462;SDS011;4268;52.506;13.462;2023-07-16T09:46:40;2.80;;;2.65;;
8462;SDS011;4268;52.506;13.462;2023-07-16T09:49:06;2.50;;;2.40;;
8462;SDS011;4268;52.506;13.462;2023-07-16T09:51:32;3.00;;;2.78;;
8462;SDS011;4268;52.506;13.462;2023-07-16T09:54:00;2.65;;;2.45;;
8462;SDS011;4268;52.506;13.462;2023-07-16T09:56:27;3.10;;;2.80;;
8462;SDS011;4268;52.506;13.462;2023-07-16T09:58:58;2.75;;;2.63;;
8462;SDS011;4268;52.506;13.462;2023-07-16T10:01:25;2.92;;;2.80;;
8462;SDS011;4268;52.506;13.462;2023-07-16T10:03:51;3.03;;;2.80;;
8462;SDS011;4268;52.506;13.462;2023-07-16T10:06:16;3.20;;;2.78;;
8462;SDS011;4268;52.506;13.462;2023-07-16T10:08:48;2.90;;;2.70;;
8462;SDS011;4268;52.506;13.462;2023-07-16T10:11:18;2.88;;;2.67;;
8462;SDS011;4268;52.506;13.462;2023-07-16T10:13:48;2.78;;;2.60;;
8462;SDS011;4268;52.506;13.462;2023-07-16T10:16:21;2.72;;;2.53;;
8462;SDS011;4268;52.506;13.462;2023-07-16T10:18:52;2.75;;;2.60;;
8462;SDS011;4268;52.506;13.462;2023-07-16T10:21:22;2.50;;;2.38;;
8462;SDS011;4268;52.506;13.462;2023-07-16T10:23:56;2.75;;;2.55;;
8462;SDS011;4268;52.506;13.462;2023-07-16T10:26:27;2.40;;;2.30;;
8462;SDS011;4268;52.506;13.462;2023-07-16T10:28:54;3.10;;;2.90;;
8462;SDS011;4268;52.506;13.462;2023-07-16T10:31:20;3.15;;;2.88;;
8462;SDS011;4268;52.506;13.462;2023-07-16T10:34:00;2.60;;;2.40;;
8462;SDS011;4268;52.506;13.462;2023-07-16T10:36:26;2.45;;;2.35;;
8462;SDS011;4268;52.506;13.462;2023-07-16T10:38:51;2.65;;;2.55;;
8462;SDS011;4268;52.506;13.462;2023-07-16T10:41:17;3.83;;;2.60;;
8462;SDS011;4268;52.506;13.462;2023-07-16T10:43:42;2.50;;;2.40;;
8462;SDS011;4268;52.506;13.462;2023-07-16T10:46:09;2.70;;;2.50;;
8462;SDS011;4268;52.506;13.462;2023-07-16T10:48:34;3.10;;;2.90;;
8462;SDS011;4268;52.506;13.462;2023-07-16T10:51:00;2.88;;;2.70;;
8462;SDS011;4268;52.506;13.462;2023-07-16T10:53:25;2.45;;;2.35;;
8462;SDS011;4268;52.506;13.462;2023-07-16T10:55:50;3.53;;;2.65;;
8462;SDS011;4268;52.506;13.462;2023-07-16T10:58:16;2.90;;;2.70;;
8462;SDS011;4268;52.506;13.462;2023-07-16T11:00:42;2.72;;;2.53;;
8462;SDS011;4268;52.506;13.462;2023-07-16T11:03:09;2.90;;;2.70;;
8462;SDS011;4268;52.506;13.462;2023-07-16T11:05:35;3.50;;;3.20;;
8462;SDS011;4268;52.506;13.462;2023-07-16T11:08:00;2.90;;;2.70;;
8462;SDS011;4268;52.506;13.462;2023-07-16T11:10:27;3.00;;;2.70;;
8462;SDS011;4268;52.506;13.462;2023-07-16T11:12:54;2.40;;;2.30;;
8462;SDS011;4268;52.506;13.462;2023-07-16T11:15:33;3.20;;;2.90;;
8462;SDS011;4268;52.506;13.462;2023-07-16T11:18:00;3.22;;;2.97;;
8462;SDS011;4268;52.506;13.462;2023-07-16T11:20:26;2.95;;;2.75;;
8462;SDS011;4268;52.506;13.462;2023-07-16T11:22:52;2.80;;;2.65;;
8462;SDS011;4268;52.506;13.462;2023-07-16T11:25:17;2.60;;;2.40;;
8462;SDS011;4268;52.506;13.462;2023-07-16T11:32:57;2.80;;;2.60;;
8462;SDS011;4268;52.506;13.462;2023-07-16T11:35:28;2.70;;;2.50;;
8462;SDS011;4268;52.506;13.462;2023-07-16T11:38:19;2.95;;;2.75;;
8462;SDS011;4268;52.506;13.462;2023-07-16T11:41:06;2.45;;;2.25;;
8462;SDS011;4268;52.506;13.462;2023-07-16T11:43:34;2.80;;;2.60;;
8462;SDS011;4268;52.506;13.462;2023-07-16T11:46:01;2.90;;;2.70;;
8462;SDS011;4268;52.506;13.462;2023-07-16T11:48:27;2.88;;;2.67;;
8462;SDS011;4268;52.506;13.462;2023-07-16T11:50:53;3.05;;;2.85;;
8462;SDS011;4268;52.506;13.462;2023-07-16T11:53:18;2.97;;;2.80;;
8462;SDS011;4268;52.506;13.462;2023-07-16T11:55:44;2.70;;;2.60;;
8462;SDS011;4268;52.506;13.462;2023-07-16T11:58:09;2.90;;;2.70;;
8462;SDS011;4268;52.506;13.462;2023-07-16T12:00:35;2.65;;;2.45;;
8462;SDS011;4268;52.506;13.462;2023-07-16T12:03:00;2.70;;;2.50;;
8462;SDS011;4268;52.506;13.462;2023-07-16T12:05:26;3.20;;;2.60;;
8462;SDS011;4268;52.506;13.462;2023-07-16T12:07:53;3.10;;;2.90;;
8462;SDS011;4268;52.506;13.462;2023-07-16T12:10:19;3.10;;;2.90;;
8462;SDS011;4268;52.506;13.462;2023-07-16T12:12:45;3.92;;;3.60;;
8462;SDS011;4268;52.506;13.462;2023-07-16T12:15:11;2.58;;;2.47;;
8462;SDS011;4268;52.506;13.462;2023-07-16T12:17:37;2.88;;;2.67;;
8462;SDS011;4268;52.506;13.462;2023-07-16T12:20:02;2.78;;;2.55;;
8462;SDS011;4268;52.506;13.462;2023-07-16T12:22:29;3.00;;;2.80;;
8462;SDS011;4268;52.506;13.462;2023-07-16T12:24:55;2.65;;;2.50;;
8462;SDS011;4268;52.506;13.462;2023-07-16T12:27:21;3.45;;;3.20;;
8462;SDS011;4268;52.506;13.462;2023-07-16T12:29:46;3.08;;;2.88;;
8462;SDS011;4268;52.506;13.462;2023-07-16T12:32:12;2.90;;;2.70;;
8462;SDS011;4268;52.506;13.462;2023-07-16T12:34:38;3.00;;;2.70;;
8462;SDS011;4268;52.506;13.462;2023-07-16T12:37:04;2.72;;;2.63;;
8462;SDS011;4268;52.506;13.462;2023-07-16T12:39:29;3.00;;;2.80;;
8462;SDS011;4268;52.506;13.462;2023-07-16T12:41:55;2.60;;;2.40;;
8462;SDS011;4268;52.506;13.462;2023-07-16T12:44:20;3.28;;;2.55;;
8462;SDS011;4268;52.506;13.462;2023-07-16T12:46:46;2.60;;;2.40;;
8462;SDS011;4268;52.506;13.462;2023-07-16T12:49:11;2.83;;;2.63;;
8462;SDS011;4268;52.506;13.462;2023-07-16T12:51:37;2.67;;;2.47;;
8462;SDS011;4268;52.506;13.462;2023-07-16T12:54:03;3.08;;;2.88;;
8462;SDS011;4268;52.506;13.462;2023-07-16T12:56:28;3.00;;;2.60;;
8462;SDS011;4268;52.506;13.462;2023-07-16T12:58:55;2.58;;;2.38;;
8462;SDS011;4268;52.506;13.462;2023-07-16T13:01:21;3.25;;;2.65;;
8462;SDS011;4268;52.506;13.462;2023-07-16T13:03:46;2.50;;;2.33;;
8462;SDS011;4268;52.506;13.462;2023-07-16T13:06:12;2.33;;;2.20;;
8462;SDS011;4268;52.506;13.462;2023-07-16T13:08:37;2.78;;;2.58;;
8462;SDS011;4268;52.506;13.462;2023-07-16T13:11:03;2.50;;;2.40;;
8462;SDS011;4268;52.506;13.462;2023-07-16T13:13:28;2.63;;;2.42;;
8462;SDS011;4268;52.506;13.462;2023-07-16T13:15:54;2.95;;;2.75;;
8462;SDS011;4268;52.506;13.462;2023-07-16T13:18:20;3.08;;;2.85;;
8462;SDS011;4268;52.506;13.462;2023-07-16T13:20:45;3.15;;;2.78;;
8462;SDS011;4268;52.506;13.462;2023-07-16T13:23:12;3.22;;;2.70;;
8462;SDS011;4268;52.506;13.462;2023-07-16T13:25:38;2.70;;;2.60;;
8462;SDS011;4268;52.506;13.462;2023-07-16T13:28:07;2.72;;;2.53;;
8462;SDS011;4268;52.506;13.462;2023-07-16T13:30:32;2.70;;;2.50;;
8462;SDS011;4268;52.506;13.462;2023-07-16T13:32:58;2.33;;;2.22;;
8462;SDS011;4268;52.506;13.462;2023-07-16T13:35:24;2.45;;;2.35;;
8462;SDS011;4268;52.506;13.462;2023-07-16T13:37:49;2.60;;;2.40;;
8462;SDS011;4268;52.506;13.462;2023-07-16T13:40:16;2.53;;;2.33;;
8462;SDS011;4268;52.506;13.462;2023-07-16T13:42:42;2.50;;;2.33;;
8462;SDS011;4268;52.506;13.462;2023-07-16T13:45:08;2.55;;;2.40;;
8462;SDS011;4268;52.506;13.462;2023-07-16T13:47:34;2.83;;;2.60;;
8462;SDS011;4268;52.506;13.462;2023-07-16T13:49:59;2.35;;;2.15;;
8462;SDS011;4268;52.506;13.462;2023-07-16T13:52:25;3.00;;;2.80;;
8462;SDS011;4268;52.506;13.462;2023-07-16T13:54:50;3.60;;;3.30;;
8462;SDS011;4268;52.506;13.462;2023-07-16T13:57:15;3.85;;;2.67;;
8462;SDS011;4268;52.506;13.462;2023-07-16T13:59:41;2.50;;;2.40;;
8462;SDS011;4268;52.506;13.462;2023-07-16T14:02:07;2.22;;;2.13;;
8462;SDS011;4268;52.506;13.462;2023-07-16T14:04:32;2.50;;;2.30;;
8462;SDS011;4268;52.506;13.462;2023-07-16T14:06:58;2.72;;;2.63;;
8462;SDS011;4268;52.506;13.462;2023-07-16T14:09:24;2.40;;;2.30;;
8462;SDS011;4268;52.506;13.462;2023-07-16T14:11:50;2.65;;;2.50;;
8462;SDS011;4268;52.506;13.462;2023-07-16T14:14:16;2.30;;;2.20;;
8462;SDS011;4268;52.506;13.462;2023-07-16T14:16:46;2.58;;;2.38;;
8462;SDS011;4268;52.506;13.462;2023-07-16T14:19:11;2.53;;;2.33;;
8462;SDS011;4268;52.506;13.462;2023-07-16T14:21:37;2.33;;;2.17;;
8462;SDS011;4268;52.506;13.462;2023-07-16T14:24:03;2.75;;;2.47;;
8462;SDS011;4268;52.506;13.462;2023-07-16T14:26:29;2.65;;;2.45;;
8462;SDS011;4268;52.506;13.462;2023-07-16T14:28:55;2.83;;;2.63;;
8462;SDS011;4268;52.506;13.462;2023-07-16T14:31:21;2.80;;;2.60;;
8462;SDS011;4268;52.506;13.462;2023-07-16T14:33:46;2.58;;;2.38;;
8462;SDS011;4268;52.506;13.462;2023-07-16T14:36:12;2.90;;;2.70;;
8462;SDS011;4268;52.506;13.462;2023-07-16T14:38:37;2.40;;;2.30;;
8462;SDS011;4268;52.506;13.462;2023-07-16T14:41:03;2.70;;;2.50;;
8462;SDS011;4268;52.506;13.462;2023-07-16T14:43:29;2.80;;;2.60;;
8462;SDS011;4268;52.506;13.462;2023-07-16T14:45:55;2.97;;;2.58;;
8462;SDS011;4268;52.506;13.462;2023-07-16T14:48:20;2.60;;;2.50;;
8462;SDS011;4268;52.506;13.462;2023-07-16T14:50:48;2.53;;;2.33;;
8462;SDS011;4268;52.506;13.462;2023-07-16T14:53:16;2.40;;;2.30;;
8462;SDS011;4268;52.506;13.462;2023-07-16T14:55:48;4.07;;;2.60;;
8462;SDS011;4268;52.506;13.462;2023-07-16T14:58:17;2.80;;;2.60;;
8462;SDS011;4268;52.506;13.462;2023-07-16T15:00:44;2.70;;;2.60;;
8462;SDS011;4268;52.506;13.462;2023-07-16T15:03:09;3.72;;;2.47;;
8462;SDS011;4268;52.506;13.462;2023-07-16T15:05:35;2.70;;;2.50;;
8462;SDS011;4268;52.506;13.462;2023-07-16T15:08:01;2.70;;;2.50;;
8462;SDS011;4268;52.506;13.462;2023-07-16T15:10:27;2.80;;;2.60;;